大阪空港の過去48時間の天気

大阪空港 (Osaka/Intl)

現在時刻: 10/20 03:40 JST (10/19 18:40 UTC) 以下の時間は現地時間です。

過去48時間のMETAR気象情報
時間 風向 風速(m/s) 視程 気温(℃) 湿度(%) 気圧(hPa) 天気現象
19 20:00 北北西 5 10km以上 18 52 1017
19 19:00 北北西 6 10km以上 18 52 1017
19 18:00 北北西 6 10km以上 20 46 1016
19 17:00 北西 3 10km以上 22 35 1015
19 16:00 西北西 2 10km以上 23 31 1015
19 15:00 不定 2 10km以上 24 29 1015
19 14:00 西 2 10km以上 23 41 1015
19 13:00 不定 2 10km以上 23 44 1015
19 12:00 不定 1 10km以上 22 43 1016
19 11:00 不定 2 10km以上 21 49 1017
19 10:00 北北西 4 10km以上 20 53 1017
19 09:00 北西 4 10km以上 19 60 1018 周辺でしゅう雨
19 08:00 北西 2 10km以上 16 72 1017
19 07:00 不定 1 10km以上 15 77 1016
19 06:00 北西 2 10km以上 14 77 1016
19 05:00 北西 2 10km以上 14 82 1016
RJOO 191100Z 34009KT 320V020 9999 FEW030 18/08 Q1017 RMK 1CU030 A3006
RJOO 191000Z 33011KT 9999 FEW030 18/08 Q1017 RMK 1CU030 A3004
RJOO 190900Z 34011KT 9999 FEW030 20/08 Q1016 RMK 1CU030 A3002
RJOO 190800Z 31005KT 280V340 9999 FEW030 22/06 Q1015 RMK 1CU030 A3000
RJOO 190700Z 30003KT 250V340 9999 FEW030 23/05 Q1015 RMK 1CU030 A2999
RJOO 190600Z VRB03KT 9999 FEW030 24/05 Q1015 RMK 1CU030 A2999
RJOO 190500Z 26004KT 200V320 9999 FEW030 SCT050 23/09 Q1015 RMK 1CU030 3SC050 A2998
RJOO 190400Z VRB04KT 9999 FEW030 SCT040 23/10 Q1015 RMK 1CU030 4CU040 A3000
RJOO 190300Z VRB02KT 9999 FEW030 SCT050 22/09 Q1016 RMK 1CU030 3SC050 A3002
RJOO 190200Z VRB03KT 9999 FEW030 21/10 Q1017 RMK 1CU030 A3003
RJOO 190100Z 34008KT 300V010 9999 FEW030 SCT090 20/10 Q1017 RMK 1CU030 3AC090 A3005
RJOO 190000Z 32007KT 9999 VCSH FEW020 BKN060 BKN110 19/11 Q1018 RMK 1CU020 5SC060 6AC110 A3006
RJOO 182300Z 32003KT 9999 FEW030 16/11 Q1017 RMK 1CU030 A3004
RJOO 182200Z VRB01KT 9999 FEW030 15/11 Q1016 RMK 1CU030 A3003
RJOO 182100Z 32003KT 9999 FEW025 14/10 Q1016 RMK 1CU025 A3001
RJOO 182000Z 32004KT 9999 FEW025 14/11 Q1016 RMK 1CU025 A3000